createdAt,value
2022-11-15T04:41:44.193Z,25.55
2022-11-15T04:45:05.900Z,27.15
2022-11-15T04:48:27.402Z,22.80
2022-11-15T04:51:48.449Z,24.67
2022-11-15T04:55:11.408Z,24.05
2022-11-15T04:58:32.816Z,26.45
2022-11-15T05:01:53.921Z,21.20
2022-11-15T05:05:14.682Z,20.50
2022-11-15T05:08:35.949Z,20.92
2022-11-15T05:11:57.178Z,19.02
2022-11-15T05:15:18.225Z,21.73
2022-11-15T05:18:41.546Z,22.83
2022-11-15T05:22:02.485Z,19.47
2022-11-15T05:25:23.865Z,27.37
2022-11-15T05:28:44.865Z,23.83
2022-11-15T05:32:07.377Z,23.50
2022-11-15T05:35:35.481Z,22.65
2022-11-15T05:38:56.322Z,25.62
2022-11-15T05:42:17.932Z,24.35
2022-11-15T05:45:38.799Z,22.62
2022-11-15T05:49:00.057Z,22.10
2022-11-15T05:52:26.366Z,22.70
2022-11-15T05:55:47.393Z,24.85
2022-11-15T05:59:10.578Z,22.98
2022-11-15T06:02:31.649Z,23.30
2022-11-15T06:05:52.710Z,23.65
2022-11-15T06:09:13.833Z,25.90
2022-11-15T06:12:34.627Z,23.08
2022-11-15T06:15:57.419Z,26.12
2022-11-15T06:19:18.214Z,20.67
2022-11-15T06:22:39.667Z,25.60
2022-11-15T06:26:01.827Z,24.95
2022-11-15T06:29:22.623Z,29.23
2022-11-15T06:32:43.330Z,29.25
2022-11-15T06:36:06.304Z,23.08
2022-11-15T06:39:27.413Z,26.00
2022-11-15T06:42:48.364Z,25.23
2022-11-15T06:46:09.414Z,28.50
2022-11-15T06:49:30.548Z,28.30
2022-11-15T06:52:51.669Z,29.27
2022-11-15T06:56:13.069Z,27.00
2022-11-15T06:59:37.801Z,29.00
2022-11-15T07:03:02.284Z,29.67
2022-11-15T07:06:23.503Z,28.70
2022-11-15T07:09:44.772Z,25.85
2022-11-15T07:13:05.724Z,27.35
2022-11-15T07:16:27.009Z,26.98
2022-11-15T07:19:48.132Z,32.03
2022-11-15T07:23:09.132Z,32.53
2022-11-15T07:26:30.042Z,26.70
2022-11-15T07:29:50.819Z,31.35
2022-11-15T07:33:11.333Z,29.55
2022-11-15T07:36:32.246Z,33.35
2022-11-15T07:39:53.381Z,26.45
2022-11-15T07:43:14.506Z,27.42
2022-11-15T07:46:35.330Z,33.28
2022-11-15T07:49:56.304Z,29.05
2022-11-15T07:53:17.440Z,26.58
2022-11-15T07:56:45.839Z,27.50
2022-11-15T08:00:09.146Z,28.90
2022-11-15T08:03:30.976Z,32.88
2022-11-15T08:06:52.644Z,31.10
2022-11-15T08:10:17.665Z,29.52
2022-11-15T08:13:38.629Z,30.23
2022-11-15T08:16:59.529Z,30.37
2022-11-15T08:20:23.905Z,30.85
2022-11-15T08:23:45.040Z,30.45
2022-11-15T08:27:06.052Z,31.35
2022-11-15T08:30:28.230Z,32.13
2022-11-15T08:33:51.548Z,31.05
2022-11-15T08:37:12.677Z,34.88
2022-11-15T08:40:33.998Z,30.88
2022-11-15T08:43:54.965Z,31.17
2022-11-15T08:47:15.948Z,33.03
2022-11-15T08:50:37.504Z,33.25
2022-11-15T08:53:58.904Z,34.35
2022-11-15T08:57:19.622Z,31.58
2022-11-15T09:00:40.489Z,32.40
2022-11-15T09:04:01.212Z,35.08
2022-11-15T09:07:22.168Z,27.05
2022-11-15T09:10:43.201Z,39.60
2022-11-15T09:14:04.016Z,34.42
2022-11-15T09:17:25.284Z,29.05
2022-11-15T09:20:48.263Z,32.08
2022-11-15T09:24:09.584Z,35.60
2022-11-15T09:27:31.374Z,32.58
2022-11-15T09:30:52.390Z,32.42
2022-11-15T09:34:13.075Z,31.58
2022-11-15T09:37:34.125Z,26.50
2022-11-15T09:41:12.750Z,29.37
2022-11-15T09:45:07.389Z,33.97
2022-11-15T09:48:47.471Z,34.38
2022-11-15T09:51:54.581Z,31.05
2022-11-15T09:54:56.911Z,31.83
2022-11-15T09:58:11.706Z,32.73
2022-11-15T10:01:26.959Z,31.67
2022-11-15T10:04:30.193Z,33.20
2022-11-15T10:07:49.667Z,34.55
2022-11-15T10:11:30.481Z,37.25
2022-11-15T10:14:28.201Z,40.35
2022-11-15T10:17:30.916Z,35.83
2022-11-15T10:20:51.703Z,37.42
2022-11-15T10:23:55.312Z,30.85
2022-11-15T10:26:58.174Z,36.03
2022-11-15T10:30:00.994Z,35.55
2022-11-15T10:33:15.579Z,36.25
2022-11-15T10:36:26.141Z,34.53
2022-11-15T10:39:29.197Z,36.35
2022-11-15T10:42:31.803Z,63.92
2022-11-15T10:45:35.091Z,37.13
2022-11-15T10:48:37.792Z,42.25
2022-11-15T10:52:12.233Z,34.03
2022-11-15T10:55:17.829Z,33.42
2022-11-15T10:58:43.277Z,36.42
2022-11-15T11:01:47.902Z,32.00
2022-11-15T11:04:52.047Z,36.95
2022-11-15T11:08:01.063Z,34.22
2022-11-15T11:11:05.610Z,38.00
2022-11-15T11:14:19.938Z,38.13
2022-11-15T11:17:43.936Z,39.08
2022-11-15T11:20:52.846Z,35.28
2022-11-15T11:24:13.743Z,35.08
2022-11-15T11:27:30.399Z,30.73
2022-11-15T11:30:55.971Z,34.58
2022-11-15T11:34:44.089Z,36.03
2022-11-15T11:37:54.290Z,31.73
2022-11-15T11:41:01.066Z,37.67
2022-11-15T11:44:24.515Z,36.88
2022-11-15T11:50:42.151Z,38.33
2022-11-15T11:54:11.506Z,33.47
2022-11-15T11:57:26.780Z,33.28
2022-11-15T12:00:35.559Z,29.83
2022-11-15T12:03:55.620Z,30.58
2022-11-15T12:07:04.651Z,37.40
2022-11-15T12:10:32.479Z,34.30
2022-11-15T12:13:40.029Z,36.47
2022-11-15T12:16:43.727Z,40.72
2022-11-15T12:19:46.451Z,33.45
2022-11-15T12:23:02.403Z,35.20
2022-11-15T12:26:27.616Z,38.75
2022-11-15T12:29:38.205Z,39.28
2022-11-15T12:32:49.795Z,42.03
2022-11-15T12:36:00.336Z,40.20
2022-11-15T12:39:10.744Z,40.65
2022-11-15T12:42:13.241Z,42.65
2022-11-15T12:45:26.368Z,43.97
2022-11-15T12:48:36.422Z,46.78
2022-11-15T12:51:48.186Z,45.10
2022-11-15T12:54:53.756Z,43.70
2022-11-15T12:57:56.084Z,48.53
2022-11-15T13:00:59.343Z,45.72
2022-11-15T13:04:20.419Z,52.47
2022-11-15T13:07:41.294Z,51.72
2022-11-15T13:10:43.742Z,44.38
2022-11-15T13:13:46.446Z,45.85
2022-11-15T13:16:48.906Z,47.75
2022-11-15T13:20:12.270Z,42.85
2022-11-15T13:23:17.375Z,39.25
2022-11-15T13:26:21.724Z,40.83
2022-11-15T13:29:24.164Z,40.40
2022-11-15T13:32:26.798Z,40.10
2022-11-15T13:35:32.713Z,39.17
2022-11-15T13:38:40.060Z,39.10
2022-11-15T13:41:49.411Z,37.95
2022-11-15T13:44:56.982Z,41.50
2022-11-15T13:47:59.318Z,42.58
2022-11-15T13:51:06.005Z,46.45
2022-11-15T13:54:24.817Z,45.85
2022-11-15T13:57:33.125Z,36.50
2022-11-15T14:00:44.194Z,33.45
2022-11-15T14:03:58.236Z,34.65
2022-11-15T14:07:02.571Z,36.83
2022-11-15T14:10:31.831Z,34.88
2022-11-15T14:13:34.677Z,38.65
2022-11-15T14:16:41.828Z,36.58
2022-11-15T14:19:44.098Z,38.28
2022-11-15T14:22:57.871Z,33.90
2022-11-15T14:26:00.675Z,35.25
2022-11-15T14:29:22.616Z,30.90
2022-11-15T14:32:27.567Z,36.25
2022-11-15T14:35:30.128Z,33.75
2022-11-15T14:38:33.388Z,32.35
2022-11-15T14:41:40.641Z,33.60
2022-11-15T14:44:45.990Z,34.15
2022-11-15T14:47:48.893Z,37.60
2022-11-15T14:50:54.250Z,32.67
2022-11-15T14:53:56.754Z,37.03
2022-11-15T14:56:58.982Z,36.90
2022-11-15T15:00:01.609Z,37.58
2022-11-15T15:03:14.541Z,43.42
2022-11-15T15:06:18.453Z,37.83
2022-11-15T15:09:20.965Z,41.30
2022-11-15T15:12:24.461Z,37.78
2022-11-15T15:15:34.529Z,41.05
2022-11-15T15:18:37.022Z,40.17
2022-11-15T15:21:39.297Z,39.72
2022-11-15T15:24:43.503Z,37.67
2022-11-15T15:27:45.808Z,42.58
2022-11-15T15:30:50.957Z,35.95
2022-11-15T15:33:53.343Z,38.30
2022-11-15T15:37:27.263Z,37.13
2022-11-15T15:40:31.964Z,38.72
2022-11-15T15:43:34.491Z,39.00
2022-11-15T15:46:36.758Z,33.92
2022-11-15T15:49:39.368Z,41.33
2022-11-15T15:52:41.561Z,37.53
2022-11-15T15:55:44.146Z,39.10
2022-11-15T15:58:46.419Z,33.40
2022-11-15T16:01:49.050Z,42.97
2022-11-15T16:04:54.010Z,33.20
2022-11-15T16:07:56.252Z,38.63
2022-11-15T16:14:01.921Z,40.42
2022-11-15T16:17:04.533Z,36.88
2022-11-15T16:20:08.170Z,44.83
2022-11-15T16:23:15.912Z,45.00
2022-11-15T16:26:30.322Z,37.35
2022-11-15T16:29:32.801Z,43.75
2022-11-15T16:32:35.160Z,46.03
2022-11-15T16:35:37.757Z,44.05
2022-11-15T16:38:40.180Z,42.83
2022-11-15T16:41:47.436Z,46.92
2022-11-15T16:44:49.780Z,41.28
2022-11-15T16:47:53.435Z,47.90
2022-11-15T16:50:59.096Z,47.40
2022-11-15T16:54:01.631Z,46.47
2022-11-15T16:57:04.155Z,44.80
